createdAt,value
2019-04-29T00:00:11.119Z,97.20
2019-04-29T00:02:40.123Z,96.80
2019-04-29T00:07:39.032Z,97.10
2019-04-29T00:10:11.444Z,97.40
2019-04-29T00:12:40.609Z,97.30
2019-04-29T00:15:28.839Z,97.00
2019-04-29T00:18:13.869Z,97.10
2019-04-29T00:20:46.225Z,97.10
2019-04-29T00:23:15.279Z,97.20
2019-04-29T00:25:44.969Z,97.80
2019-04-29T00:30:45.465Z,97.80
2019-04-29T00:33:14.879Z,97.90
2019-04-29T00:35:44.081Z,98.40
2019-04-29T00:38:32.201Z,98.00
2019-04-29T00:41:23.248Z,97.70
2019-04-29T00:46:28.178Z,97.80
2019-04-29T00:51:25.686Z,97.60
2019-04-29T00:53:59.273Z,98.20
2019-04-29T00:56:29.642Z,97.20
2019-04-29T00:58:58.871Z,97.30
2019-04-29T01:01:38.842Z,97.20
2019-04-29T01:04:09.908Z,96.90
2019-04-29T01:06:53.284Z,97.00
2019-04-29T01:09:23.024Z,97.60
2019-04-29T01:14:33.076Z,97.00
2019-04-29T01:17:02.858Z,96.70
2019-04-29T01:19:34.773Z,96.80
2019-04-29T01:22:04.246Z,96.90
2019-04-29T01:24:33.547Z,97.10
2019-04-29T01:27:19.175Z,97.20
2019-04-29T01:29:52.760Z,96.70
2019-04-29T01:32:22.328Z,97.10
2019-04-29T01:37:40.113Z,97.40
2019-04-29T01:43:00.903Z,97.40
2019-04-29T01:45:30.303Z,97.20
2019-04-29T01:48:04.625Z,97.10
2019-04-29T01:50:35.514Z,97.30
2019-04-29T01:53:07.213Z,97.00
2019-04-29T01:55:45.019Z,96.90
2019-04-29T01:58:23.824Z,97.20
2019-04-29T02:00:54.621Z,97.10
2019-04-29T02:06:05.091Z,96.90
2019-04-29T02:08:34.445Z,97.00
2019-04-29T02:11:06.954Z,96.90
2019-04-29T02:13:36.633Z,96.80
2019-04-29T02:16:09.183Z,97.10
2019-04-29T02:18:39.778Z,97.10
2019-04-29T02:21:11.276Z,97.40
2019-04-29T02:23:45.660Z,96.70
2019-04-29T02:28:48.889Z,97.00
2019-04-29T02:31:35.498Z,97.00
2019-04-29T02:34:04.702Z,97.40
2019-04-29T02:36:33.885Z,96.90
2019-04-29T02:39:25.959Z,96.70
2019-04-29T02:42:12.529Z,96.50
2019-04-29T02:44:44.896Z,96.80
2019-04-29T02:47:13.898Z,97.10
2019-04-29T02:49:43.038Z,96.90
2019-04-29T02:52:14.005Z,97.20
2019-04-29T02:54:43.565Z,97.80
2019-04-29T03:00:07.611Z,97.20
2019-04-29T03:03:01.178Z,97.10
2019-04-29T03:05:35.075Z,97.40
2019-04-29T03:08:04.157Z,97.30
2019-04-29T03:10:33.267Z,97.60
2019-04-29T03:13:04.052Z,97.90
2019-04-29T03:15:37.667Z,97.70
2019-04-29T03:20:44.471Z,98.10
2019-04-29T03:23:15.766Z,98.10
2019-04-29T03:25:44.993Z,98.40
2019-04-29T03:28:14.273Z,97.80
2019-04-29T03:30:45.757Z,97.30
2019-04-29T03:33:19.655Z,97.70
2019-04-29T03:35:48.746Z,98.00
2019-04-29T03:38:23.509Z,98.10
2019-04-29T03:43:25.113Z,98.00
2019-04-29T03:45:54.286Z,98.20
2019-04-29T03:48:24.803Z,98.50
2019-04-29T03:50:53.976Z,97.90
2019-04-29T03:53:23.061Z,98.30
2019-04-29T03:55:56.533Z,98.20
2019-04-29T03:58:27.386Z,98.10
2019-04-29T04:01:03.784Z,98.50
2019-04-29T04:03:39.846Z,98.50
2019-04-29T04:09:06.186Z,98.60
2019-04-29T04:11:31.949Z,99.10
2019-04-29T04:14:04.284Z,99.10
2019-04-29T04:16:51.058Z,99.50
2019-04-29T04:19:21.294Z,99.20
2019-04-29T04:21:56.752Z,99.00
2019-04-29T04:24:31.848Z,98.80
2019-04-29T04:27:00.943Z,98.70
2019-04-29T04:31:58.786Z,98.70
2019-04-29T04:34:28.028Z,99.00
2019-04-29T04:37:00.431Z,99.10
2019-04-29T04:39:34.587Z,99.20
2019-04-29T04:42:03.827Z,98.60
2019-04-29T04:44:48.200Z,98.50
2019-04-29T04:49:46.486Z,98.50
2019-04-29T04:54:46.287Z,98.60
2019-04-29T04:57:15.473Z,98.90
2019-04-29T04:59:46.368Z,98.80
2019-04-29T05:02:18.097Z,98.40
2019-04-29T05:04:50.164Z,98.30
2019-04-29T05:07:19.333Z,98.50
2019-04-29T05:09:54.342Z,98.30
2019-04-29T05:12:23.717Z,98.60
2019-04-29T05:14:53.112Z,97.80
2019-04-29T05:19:50.771Z,97.70
2019-04-29T05:22:19.866Z,97.50
2019-04-29T05:24:49.235Z,97.40
2019-04-29T05:27:18.332Z,97.70
2019-04-29T05:29:49.097Z,98.00
2019-04-29T05:32:18.257Z,97.70
2019-04-29T05:34:48.959Z,98.30
2019-04-29T05:42:43.076Z,98.20
2019-04-29T05:45:34.179Z,98.30
2019-04-29T05:48:13.021Z,98.50
2019-04-29T05:50:52.047Z,98.40
2019-04-29T05:53:33.136Z,98.30
2019-04-29T05:56:04.461Z,98.40
2019-04-29T05:58:37.814Z,98.80
2019-04-29T06:01:09.360Z,97.60
2019-04-29T06:06:12.396Z,97.40
2019-04-29T06:08:40.617Z,97.90
2019-04-29T06:11:14.714Z,98.30
2019-04-29T06:13:43.914Z,97.90
2019-04-29T06:16:16.093Z,97.90
2019-04-29T06:18:44.062Z,98.30
2019-04-29T06:21:14.317Z,98.30
2019-04-29T06:23:43.376Z,98.00
2019-04-29T06:28:42.275Z,96.70
2019-04-29T06:31:11.296Z,97.00
2019-04-29T06:33:40.434Z,96.50
2019-04-29T06:36:09.696Z,95.60
2019-04-29T06:38:40.613Z,94.40
2019-04-29T06:41:10.834Z,95.60
2019-04-29T06:43:40.190Z,95.10
2019-04-29T06:46:18.646Z,94.50
2019-04-29T06:48:47.850Z,95.90
2019-04-29T06:53:47.765Z,95.70
2019-04-29T06:56:17.209Z,95.90
2019-04-29T06:58:49.106Z,95.90
2019-04-29T07:01:18.459Z,95.00
2019-04-29T07:03:47.550Z,94.50
2019-04-29T07:06:16.882Z,94.60
2019-04-29T07:08:46.017Z,94.90
2019-04-29T07:11:15.340Z,95.70
2019-04-29T07:16:21.558Z,95.60
2019-04-29T07:18:53.407Z,95.60
2019-04-29T07:21:18.921Z,95.70
2019-04-29T07:23:47.879Z,94.40
2019-04-29T07:26:16.765Z,94.80
2019-04-29T07:28:48.802Z,95.60
2019-04-29T07:31:16.380Z,96.60
2019-04-29T07:33:45.488Z,96.80
2019-04-29T07:38:46.497Z,96.30
2019-04-29T07:41:18.854Z,95.20
2019-04-29T07:43:45.048Z,94.70
2019-04-29T07:46:34.673Z,94.20
2019-04-29T07:49:05.563Z,95.00
2019-04-29T07:51:34.814Z,95.50
2019-04-29T07:54:04.242Z,95.30
2019-04-29T07:59:07.203Z,96.40
2019-04-29T08:01:36.175Z,96.60
2019-04-29T08:04:05.269Z,96.80
2019-04-29T08:06:38.188Z,94.80
2019-04-29T08:09:08.111Z,96.50
2019-04-29T08:11:39.092Z,95.90
2019-04-29T08:14:08.425Z,96.10
2019-04-29T08:16:41.510Z,95.70
2019-04-29T08:19:10.586Z,95.90
2019-04-29T08:24:11.627Z,96.10
2019-04-29T08:26:46.903Z,96.60
2019-04-29T08:29:09.685Z,96.10
2019-04-29T08:31:38.876Z,96.10
2019-04-29T08:34:07.872Z,96.00
2019-04-29T08:36:36.966Z,95.30
2019-04-29T08:39:09.206Z,95.30
2019-04-29T08:47:14.561Z,96.10
2019-04-29T08:49:45.465Z,96.70
2019-04-29T08:52:17.472Z,96.10
2019-04-29T08:54:50.687Z,95.70
2019-04-29T08:57:23.191Z,96.40
2019-04-29T08:59:52.228Z,97.70
2019-04-29T09:02:34.597Z,98.00
2019-04-29T09:04:58.623Z,97.60
2019-04-29T09:07:29.587Z,97.50
2019-04-29T09:12:29.930Z,98.40
2019-04-29T09:14:59.118Z,98.10
2019-04-29T09:17:28.187Z,98.80
2019-04-29T09:19:57.908Z,99.30
2019-04-29T09:22:28.494Z,99.00
2019-04-29T09:25:16.769Z,97.80
2019-04-29T09:27:46.690Z,97.70
2019-04-29T09:30:17.375Z,97.80
2019-04-29T09:35:19.196Z,98.90
2019-04-29T09:37:48.444Z,99.20
2019-04-29T09:40:19.243Z,99.10
2019-04-29T09:42:58.387Z,99.80
2019-04-29T09:45:58.865Z,98.30
2019-04-29T09:48:27.957Z,97.50
2019-04-29T09:50:57.185Z,98.20
2019-04-29T09:53:26.229Z,96.70
2019-04-29T09:58:26.537Z,97.80
2019-04-29T10:01:13.847Z,98.70
2019-04-29T10:04:01.563Z,98.30
2019-04-29T10:06:33.270Z,97.60
2019-04-29T10:09:08.495Z,97.90
2019-04-29T10:11:37.682Z,98.40
2019-04-29T10:14:08.584Z,97.50
2019-04-29T10:17:15.420Z,96.70
2019-04-29T10:20:02.593Z,97.90
2019-04-29T10:22:31.695Z,98.40
2019-04-29T10:25:00.530Z,97.40
2019-04-29T10:29:59.845Z,95.40
2019-04-29T10:32:28.923Z,95.30
2019-04-29T10:34:57.960Z,95.40
2019-04-29T10:37:31.487Z,97.80
2019-04-29T10:40:18.429Z,96.10
2019-04-29T10:43:04.515Z,95.40
2019-04-29T10:45:52.467Z,95.40
2019-04-29T10:48:26.740Z,96.10
2019-04-29T10:50:56.022Z,96.20
2019-04-29T10:58:31.175Z,94.60
2019-04-29T11:01:39.130Z,96.80
2019-04-29T11:04:10.965Z,95.90
2019-04-29T11:06:44.250Z,93.40
2019-04-29T11:09:30.709Z,94.30
2019-04-29T11:11:59.910Z,94.20
2019-04-29T11:14:37.602Z,94.90
2019-04-29T11:19:50.032Z,93.80
2019-04-29T11:25:20.537Z,94.50
2019-04-29T11:28:03.019Z,93.90
2019-04-29T11:30:40.730Z,94.70
2019-04-29T11:33:21.589Z,95.00
2019-04-29T11:36:05.495Z,95.00
2019-04-29T11:38:38.234Z,94.90
2019-04-29T11:41:19.695Z,93.80
2019-04-29T11:43:46.772Z,94.00
2019-04-29T11:46:23.468Z,95.80
2019-04-29T11:48:55.438Z,96.90
2019-04-29T11:56:44.881Z,93.70
2019-04-29T11:59:53.879Z,95.50
2019-04-29T12:02:45.464Z,95.70
2019-04-29T12:05:15.689Z,96.00
2019-04-29T12:07:44.871Z,96.40
2019-04-29T12:10:14.116Z,96.90
2019-04-29T12:12:43.726Z,97.30
2019-04-29T12:15:29.379Z,97.90
2019-04-29T12:23:33.290Z,98.60
2019-04-29T12:26:04.824Z,98.50
2019-04-29T12:28:33.558Z,99.90
2019-04-29T12:31:10.376Z,99.90
2019-04-29T12:33:43.918Z,99.90
2019-04-29T12:36:16.413Z,99.90
2019-04-29T12:39:02.148Z,99.40
2019-04-29T12:44:35.061Z,99.90
2019-04-29T12:46:59.525Z,99.90
2019-04-29T12:49:28.376Z,99.90
2019-04-29T12:51:57.555Z,99.90
2019-04-29T12:54:26.776Z,99.90
2019-04-29T12:56:55.809Z,99.90
2019-04-29T12:59:30.648Z,99.90
2019-04-29T13:02:14.979Z,99.90
2019-04-29T13:07:43.145Z,99.90
2019-04-29T13:10:25.401Z,99.90
2019-04-29T13:12:54.619Z,99.90
2019-04-29T13:16:00.944Z,99.90
2019-04-29T13:18:38.674Z,99.90
2019-04-29T13:21:10.578Z,99.90
2019-04-29T13:23:55.066Z,99.90
2019-04-29T13:26:09.707Z,99.90
2019-04-29T13:28:58.474Z,99.90
2019-04-29T13:33:40.812Z,99.90
2019-04-29T13:36:12.247Z,99.90
2019-04-29T13:38:42.390Z,99.90
2019-04-29T13:41:13.972Z,99.90
2019-04-29T13:43:42.417Z,99.90
2019-04-29T13:46:30.724Z,99.90
2019-04-29T13:49:21.873Z,99.90
2019-04-29T13:51:52.648Z,99.90
2019-04-29T13:56:56.844Z,99.30
2019-04-29T13:59:32.967Z,99.80
2019-04-29T14:02:32.386Z,99.40
2019-04-29T14:05:02.994Z,99.70
2019-04-29T14:07:32.270Z,99.60
2019-04-29T14:10:01.380Z,99.80
2019-04-29T14:15:01.254Z,99.90
2019-04-29T14:17:31.779Z,99.90
2019-04-29T14:22:34.389Z,98.40
2019-04-29T14:25:08.392Z,98.80
2019-04-29T14:27:43.691Z,98.00
2019-04-29T14:30:20.471Z,98.50
2019-04-29T14:32:52.005Z,98.40
2019-04-29T14:35:48.230Z,98.90
2019-04-29T14:38:19.524Z,98.80
2019-04-29T14:40:48.763Z,97.80
2019-04-29T14:43:35.246Z,98.00
2019-04-29T14:46:24.069Z,98.70
2019-04-29T14:51:36.747Z,98.90
2019-04-29T14:54:07.530Z,99.20
2019-04-29T14:56:36.617Z,99.80
2019-04-29T14:59:08.479Z,99.40
2019-04-29T15:02:05.568Z,99.80
2019-04-29T15:04:39.404Z,99.70
2019-04-29T15:07:08.567Z,98.80
2019-04-29T15:09:55.956Z,99.10
2019-04-29T15:12:51.827Z,99.20
2019-04-29T15:15:46.626Z,99.70
2019-04-29T15:18:45.976Z,99.90
2019-04-29T15:23:38.408Z,99.90
2019-04-29T15:26:07.552Z,99.90
2019-04-29T15:28:50.971Z,99.40
2019-04-29T15:31:21.760Z,99.70
2019-04-29T15:33:50.907Z,99.40
2019-04-29T15:36:21.856Z,99.70
2019-04-29T15:39:08.246Z,99.70
2019-04-29T15:41:29.613Z,99.90
2019-04-29T15:48:57.218Z,99.90
2019-04-29T15:51:26.211Z,99.90
2019-04-29T15:53:55.232Z,99.90
2019-04-29T15:56:28.874Z,99.90
2019-04-29T15:58:59.632Z,99.90
2019-04-29T16:01:27.891Z,99.90
2019-04-29T16:03:57.791Z,99.90
2019-04-29T16:06:51.935Z,99.90
2019-04-29T16:12:29.351Z,99.90
2019-04-29T16:14:58.518Z,99.90
2019-04-29T16:17:31.885Z,99.90
2019-04-29T16:19:58.344Z,99.90
2019-04-29T16:22:27.771Z,99.90
2019-04-29T16:24:59.407Z,99.90
2019-04-29T16:27:27.756Z,99.90
2019-04-29T16:29:56.878Z,99.90
2019-04-29T16:35:02.071Z,99.90
2019-04-29T16:37:31.951Z,99.90
2019-04-29T16:40:01.386Z,99.90
2019-04-29T16:42:39.835Z,99.90
2019-04-29T16:45:11.977Z,99.90
2019-04-29T16:47:39.921Z,99.90
2019-04-29T16:50:08.962Z,99.80
2019-04-29T16:52:44.203Z,99.90
2019-04-29T16:57:37.137Z,99.90
2019-04-29T17:00:13.660Z,99.90
2019-04-29T17:02:38.316Z,99.90
2019-04-29T17:05:07.426Z,99.90
2019-04-29T17:07:36.547Z,99.90
2019-04-29T17:10:24.607Z,99.90
2019-04-29T17:12:53.858Z,99.90
2019-04-29T17:17:53.773Z,99.90
2019-04-29T17:20:22.981Z,99.90
2019-04-29T17:22:52.192Z,99.90
2019-04-29T17:25:21.279Z,99.90
2019-04-29T17:28:25.480Z,99.90
2019-04-29T17:31:14.355Z,99.90
2019-04-29T17:33:49.813Z,99.90
2019-04-29T17:36:23.197Z,99.90
2019-04-29T17:38:48.841Z,99.90
2019-04-29T17:44:14.645Z,99.90
2019-04-29T17:46:48.693Z,99.90
2019-04-29T17:49:36.604Z,99.90
2019-04-29T17:54:44.965Z,99.90
2019-04-29T17:57:42.684Z,99.90
2019-04-29T18:03:29.268Z,99.90
2019-04-29T18:06:24.450Z,99.90
2019-04-29T18:11:51.891Z,99.90
2019-04-29T18:14:18.220Z,99.90
2019-04-29T18:16:47.939Z,99.90
2019-04-29T18:19:25.666Z,99.90
2019-04-29T18:22:24.834Z,99.90
2019-04-29T18:24:58.883Z,99.90
2019-04-29T18:27:29.037Z,99.90
2019-04-29T18:30:02.519Z,99.90
2019-04-29T18:35:02.481Z,99.90
2019-04-29T18:37:36.923Z,99.90
2019-04-29T18:40:03.602Z,99.90
2019-04-29T18:42:32.745Z,99.90
2019-04-29T18:45:01.952Z,99.90
2019-04-29T18:47:36.444Z,99.90
2019-04-29T18:50:05.068Z,99.90
2019-04-29T18:52:35.123Z,99.90
2019-04-29T18:57:35.792Z,99.90
2019-04-29T19:00:11.701Z,99.90
2019-04-29T19:02:45.317Z,99.90
2019-04-29T19:05:33.981Z,99.90
2019-04-29T19:08:14.327Z,99.90
2019-04-29T19:10:37.986Z,99.90
2019-04-29T19:13:12.567Z,99.90
2019-04-29T19:15:39.942Z,99.90
2019-04-29T19:20:41.290Z,99.90
2019-04-29T19:23:10.411Z,99.90
2019-04-29T19:25:41.599Z,99.90
2019-04-29T19:28:14.566Z,99.90
2019-04-29T19:30:41.253Z,99.90
2019-04-29T19:33:10.052Z,99.90
2019-04-29T19:35:38.964Z,99.90
2019-04-29T19:38:12.449Z,99.90
2019-04-29T19:43:10.209Z,99.90
2019-04-29T19:45:38.791Z,99.90
2019-04-29T19:48:07.523Z,99.90
2019-04-29T19:50:36.227Z,99.90
2019-04-29T19:53:06.321Z,99.90
2019-04-29T19:55:42.078Z,99.90
2019-04-29T19:58:07.149Z,99.90
2019-04-29T20:00:39.125Z,99.90
2019-04-29T20:05:45.878Z,99.90
2019-04-29T20:08:31.203Z,99.90
2019-04-29T20:10:49.876Z,99.90
2019-04-29T20:13:16.331Z,99.90
2019-04-29T20:16:12.737Z,99.90
2019-04-29T20:19:00.957Z,99.90
2019-04-29T20:21:29.701Z,99.90
2019-04-29T20:23:59.061Z,99.90
2019-04-29T20:26:29.589Z,99.90
2019-04-29T20:31:27.889Z,99.90
2019-04-29T20:33:58.644Z,99.90
2019-04-29T20:36:38.493Z,99.90
2019-04-29T20:38:58.056Z,99.90
2019-04-29T20:41:40.272Z,99.90
2019-04-29T20:44:00.818Z,99.90
2019-04-29T20:46:40.098Z,99.90
2019-04-29T20:48:59.861Z,99.90
2019-04-29T20:54:08.860Z,99.90
2019-04-29T20:56:35.745Z,99.90
2019-04-29T20:59:08.957Z,99.90
2019-04-29T21:01:43.104Z,99.90
2019-04-29T21:04:08.305Z,99.90
2019-04-29T21:06:43.815Z,99.90
2019-04-29T21:09:07.556Z,99.90
2019-04-29T21:11:51.590Z,99.90
2019-04-29T21:14:33.870Z,99.90
2019-04-29T21:17:02.301Z,99.90
2019-04-29T21:19:28.203Z,99.90
2019-04-29T21:21:56.906Z,99.90
2019-04-29T21:24:25.630Z,99.90
2019-04-29T21:26:55.042Z,99.90
2019-04-29T21:29:25.570Z,99.90
2019-04-29T21:31:58.329Z,99.90
2019-04-29T21:34:29.648Z,99.90
2019-04-29T21:39:55.094Z,99.90
2019-04-29T21:42:35.670Z,99.90
2019-04-29T21:45:03.934Z,99.90
2019-04-29T21:47:42.729Z,99.90
2019-04-29T21:50:05.056Z,99.90
2019-04-29T21:52:34.083Z,99.90
2019-04-29T21:55:05.132Z,99.90
2019-04-29T22:00:02.689Z,99.90
2019-04-29T22:02:31.970Z,99.90
2019-04-29T22:05:01.099Z,99.90
2019-04-29T22:07:29.815Z,99.90
2019-04-29T22:09:58.551Z,99.90
2019-04-29T22:12:27.343Z,99.90
2019-04-29T22:14:56.473Z,99.90
2019-04-29T22:17:32.461Z,99.90
2019-04-29T22:22:26.167Z,99.90
2019-04-29T22:24:57.589Z,99.90
2019-04-29T22:27:25.545Z,99.90
2019-04-29T22:29:55.587Z,99.90
2019-04-29T22:32:24.339Z,99.90
2019-04-29T22:34:54.468Z,99.90
2019-04-29T22:37:25.391Z,99.90
2019-04-29T22:39:53.932Z,99.90
2019-04-29T22:50:33.556Z,99.90
2019-04-29T22:53:01.214Z,99.90
2019-04-29T22:55:37.135Z,99.90
2019-04-29T22:58:08.174Z,99.90
2019-04-29T23:00:33.064Z,99.90
2019-04-29T23:03:03.542Z,99.90
2019-04-29T23:05:32.345Z,99.90
2019-04-29T23:08:01.182Z,99.90
2019-04-29T23:12:59.084Z,99.90
2019-04-29T23:15:27.803Z,99.90
2019-04-29T23:17:56.763Z,99.90
2019-04-29T23:20:43.249Z,99.90
2019-04-29T23:23:16.696Z,99.90
2019-04-29T23:25:48.695Z,99.90
2019-04-29T23:30:47.823Z,99.90
2019-04-29T23:33:22.727Z,99.90
2019-04-29T23:35:46.964Z,99.90
2019-04-29T23:38:15.717Z,99.90
2019-04-29T23:40:44.421Z,99.90
2019-04-29T23:43:13.167Z,99.90
2019-04-29T23:45:41.883Z,99.90
2019-04-29T23:48:10.595Z,99.90
2019-04-29T23:53:07.785Z,99.90
2019-04-29T23:55:36.606Z,99.90
2019-04-29T23:58:22.839Z,99.90
